ADDS METAR Data INFO
IDs: Format: Raw Decoded Include TAF

Data at: 2147 UTC 15 Dec 2017

K49A 152135Z AUTO 29006KT 10SM CLR 01/M05 A3013 RMK AO2 LTG DSNT N T00121050
K49A 152115Z AUTO 30007KT 240V320 10SM CLR 01/M05 A3011 RMK AO2 LTG DSNT N T00131049
K49A 152055Z AUTO 30006KT 10SM CLR 02/M05 A3011 RMK AO2 LTG DSNT N T00151048
K49A 152035Z AUTO 30006KT 10SM CLR 02/M05 A3010 RMK AO2 LTG DSNT N T00151048
K49A 152015Z AUTO 28004KT 10SM CLR 02/M05 A3009 RMK AO2 LTG DSNT N T00161049
K49A 151955Z AUTO 32006KT 10SM CLR 02/M05 A3009 RMK AO2 LTG DSNT N T00161051
K49A 151935Z AUTO 33006KT 10SM CLR 02/M05 A3009 RMK AO2 LTG DSNT N T00161048
K49A 151915Z AUTO 32011KT 10SM CLR 02/M05 A3009 RMK AO2 LTG DSNT N T00161049
K49A 151855Z AUTO 34008KT 10SM CLR 02/M05 A3010 RMK AO2 LTG DSNT N T00151049
K49A 151835Z AUTO 33010G16KT 10SM CLR 02/M05 A3009 RMK AO2 LTG DSNT N T00171046
K49A 151815Z AUTO 32006KT 10SM CLR 01/M05 A3009 RMK AO2 LTG DSNT N T00131047
K49A 151755Z AUTO 31008KT 280V340 10SM SCT025 01/M05 A3012 RMK AO2 LTG DSNT N T00121047 10023 21010
K49A 151735Z AUTO 31007KT 280V340 10SM SCT025 02/M04 A3011 RMK AO2 LTG DSNT N T00151044
K49A 151715Z AUTO 30008G14KT 280V360 10SM SCT025 02/M05 A3012 RMK AO2 LTG DSNT N T00151047
K49A 151655Z AUTO 33007G18KT 10SM CLR 02/M04 A3011 RMK AO2 LTG DSNT N T00171045
K49A 151635Z AUTO 31004KT 10SM CLR 02/M04 A3010 RMK AO2 LTG DSNT N T00201043
K49A 151615Z AUTO 32006KT 10SM CLR 02/M04 A3010 RMK AO2 LTG DSNT N T00191038
K49A 151555Z AUTO 30003KT 10SM SCT021 02/M03 A3010 RMK AO2 LTG DSNT N T00151035
K49A 151535Z AUTO 29005KT 10SM SCT021 01/M03 A3008 RMK AO2 LTG DSNT N T00121033
K49A 151515Z AUTO 27005KT 10SM CLR 01/M03 A3008 RMK AO2 LTG DSNT N T00121029
K49A 151455Z AUTO 00000KT 10SM CLR 01/M03 A3007 RMK AO2 LTG DSNT N T00101031
K49A 151435Z AUTO 29004KT 10SM CLR 01/M03 A3007 RMK AO2 LTG DSNT N T00051030
K49A 151415Z AUTO 26005KT 10SM CLR 00/M03 A3007 RMK AO2 LTG DSNT N T00001026
K49A 151355Z AUTO 29005KT 10SM CLR 00/M02 A3005 RMK AO2 LTG DSNT N T10011020
K49A 151335Z AUTO 30003KT 10SM CLR 00/M02 A3005 RMK AO2 LTG DSNT N T10041017
K49A 151315Z AUTO 28004KT 10SM CLR 00/M01 A3004 RMK AO2 LTG DSNT N T10051011
K49A 151255Z AUTO 00000KT 10SM CLR M01/M01 A3003 RMK AO2 LTG DSNT N T10071007
K49A 151235Z AUTO 00000KT 10SM CLR M01/M01 A3003 RMK AO2 LTG DSNT N T10101010
K49A 151215Z AUTO 00000KT 10SM CLR M01/M01 A3003 RMK AO2 LTG DSNT N T10101010
K49A 151155Z AUTO 30004KT 10SM CLR M01/M01 A3003 RMK AO2 LTG DSNT N T10081008 10026 21011
K49A 151135Z AUTO 30003KT 10SM CLR M01/M01 A3001 RMK AO2 LTG DSNT N T10111011
K49A 151115Z AUTO 00000KT 10SM CLR M01/M01 A3001 RMK AO2 LTG DSNT N T10061006
K49A 151055Z AUTO 27003KT 10SM CLR M01/M01 A3001 RMK AO2 LTG DSNT N T10071007
K49A 151035Z AUTO 00000KT 10SM CLR 00/00 A3000 RMK AO2 LTG DSNT N T10051005
K49A 151015Z AUTO 31003KT 10SM CLR 00/M01 A3001 RMK AO2 LTG DSNT N T10031010
K49A 150955Z AUTO 35003KT 10SM CLR 00/M01 A3000 RMK AO2 LTG DSNT N T00001007
K49A 150935Z AUTO 00000KT 10SM CLR 00/M01 A3000 RMK AO2 LTG DSNT N T00031008
K49A 150915Z AUTO 00000KT 10SM CLR 01/00 A3001 RMK AO2 LTG DSNT N T00111005
K49A 150855Z AUTO 00000KT 10SM CLR 02/00 A3001 RMK AO2 LTG DSNT N T00151002
K49A 150835Z AUTO 00000KT 10SM CLR 02/00 A3000 RMK AO2 LTG DSNT N T00150000
K49A 150815Z AUTO 00000KT 10SM CLR 02/00 A3000 RMK AO2 LTG DSNT N T00171002
K49A 150755Z AUTO 00000KT 10SM CLR 02/00 A3000 RMK AO2 LTG DSNT N T00161002
K49A 150735Z AUTO 00000KT 10SM CLR 02/00 A3000 RMK AO2 LTG DSNT N T00171005
K49A 150715Z AUTO 00000KT 10SM CLR 02/00 A3001 RMK AO2 LTG DSNT N T00211005
K49A 150655Z AUTO 00000KT 10SM CLR 02/M01 A3001 RMK AO2 LTG DSNT N T00241008
K49A 150635Z AUTO 00000KT 10SM CLR 02/00 A3001 RMK AO2 LTG DSNT N T00221003
K49A 150615Z AUTO 00000KT 10SM SCT120 02/00 A3001 RMK AO2 LTG DSNT N T00221004
K49A 150555Z AUTO 00000KT 10SM SCT120 03/M01 A3001 RMK AO2 LTG DSNT N T00261006 10056 20011 401201033
K49A 150535Z AUTO 00000KT 10SM CLR 03/M01 A3000 RMK AO2 LTG DSNT N T00281006
K49A 150515Z AUTO 00000KT 10SM CLR 03/M01 A3000 RMK AO2 LTG DSNT N T00261009
K49A 150455Z AUTO 06003KT 10SM CLR 03/M01 A3000 RMK AO2 LTG DSNT N T00281008
K49A 150435Z AUTO 00000KT 10SM CLR 02/M01 A3001 RMK AO2 LTG DSNT N T00231006
K49A 150415Z AUTO 02003KT 10SM CLR 02/00 A3001 RMK AO2 LTG DSNT N T00161005
K49A 150355Z AUTO 00000KT 10SM CLR 01/M01 A3001 RMK AO2 LTG DSNT N T00131007
K49A 150335Z AUTO 00000KT 10SM CLR 02/M01 A3001 RMK AO2 LTG DSNT N T00151010
K49A 150315Z AUTO 05003KT 10SM CLR 02/M01 A3000 RMK AO2 LTG DSNT N T00171008
K49A 150255Z AUTO 36003KT 10SM CLR 01/M01 A3001 RMK AO2 LTG DSNT N T00121013
K49A 150235Z AUTO 00000KT 10SM CLR 02/M01 A3001 RMK AO2 LTG DSNT N T00181011
K49A 150215Z AUTO 00000KT 10SM CLR 02/M01 A3000 RMK AO2 LTG DSNT N T00201011
K49A 150155Z AUTO 00000KT 10SM CLR 02/M01 A3000 RMK AO2 LTG DSNT N T00241011
K49A 150135Z AUTO 00000KT 10SM CLR 03/M01 A2999 RMK AO2 LTG DSNT N T00251012
K49A 150110Z AUTO 00000KT 10SM CLR 03/M01 A2998 RMK AO2 LTG DSNT N T00341011
K49A 150055Z AUTO 00000KT 10SM CLR 03/M01 A2997 RMK AO2 LTG DSNT N T00341010
K49A 150035Z AUTO 00000KT 10SM CLR 04/M01 A2998 RMK AO2 LTG DSNT N T00391010
K49A 150015Z AUTO 00000KT 10SM CLR 05/M01 A2997 RMK AO2 LTG DSNT N T00451010
K49A 142355Z AUTO 00000KT 10SM CLR 06/M01 A2997 RMK AO2 LTG DSNT N T00551010 10120 20055
K49A 142335Z AUTO 00000KT 10SM CLR 06/M01 A2996 RMK AO2 LTG DSNT N T00591010
K49A 142315Z AUTO 01003KT 10SM CLR 06/M01 A2996 RMK AO2 LTG DSNT N T00601010
K49A 142255Z AUTO 00000KT 10SM CLR 08/M01 A2996 RMK AO2 LTG DSNT N T00751010
K49A 142235Z AUTO 00000KT 10SM CLR 09/M01 A2995 RMK AO2 LTG DSNT N T00851011
K49A 142215Z AUTO 00000KT 10SM CLR 10/M01 A2995 RMK AO2 LTG DSNT N T00951011
K49A 142155Z AUTO 00000KT 10SM CLR 11/M02 A2995 RMK AO2 LTG DSNT N T01061016
K49A 142135Z AUTO 00000KT 10SM CLR 11/M02 A2995 RMK AO2 LTG DSNT N T01081018
K49A 142115Z AUTO 00000KT 10SM CLR 11/M02 A2995 RMK AO2 LTG DSNT N T01111019
K49A 142055Z AUTO 27004KT 10SM CLR 11/M02 A2995 RMK AO2 LTG DSNT N T01131018
K49A 142035Z AUTO 26004KT 10SM CLR 12/M02 A2995 RMK AO2 LTG DSNT N T01151020
K49A 142015Z AUTO 28006KT 10SM CLR 12/M02 A2995 RMK AO2 LTG DSNT N T01151022
K49A 141955Z AUTO 28005KT 10SM CLR 12/M02 A2995 RMK AO2 LTG DSNT N T01161020
K49A 141935Z AUTO 29004KT 10SM CLR 12/M02 A2994 RMK AO2 LTG DSNT N T01181018
K49A 141915Z AUTO 26007KT 10SM CLR 12/M02 A2994 RMK AO2 LTG DSNT N T01161016
K49A 141855Z AUTO 23008KT 10SM CLR 11/M02 A2994 RMK AO2 LTG DSNT N T01111020
K49A 141835Z AUTO 24007KT 10SM CLR 11/M02 A2994 RMK AO2 LTG DSNT N T01081019
K49A 141815Z AUTO 27007KT 10SM CLR 11/M01 A2994 RMK AO2 LTG DSNT N T01051015
K49A 141755Z AUTO 24006KT 10SM CLR 10/M01 A2994 RMK AO2 LTG DSNT N T01021014 10105 21033
K49A 141735Z AUTO 27007KT 10SM CLR 10/M01 A2994 RMK AO2 LTG DSNT N T01001015
K49A 141715Z AUTO 25005KT 10SM CLR 10/M02 A2994 RMK AO2 LTG DSNT N T00991017
K49A 141655Z AUTO 29004KT 10SM CLR 10/M02 A2994 RMK AO2 LTG DSNT N T01001021
K49A 141635Z AUTO 00000KT 10SM CLR 10/M02 A2994 RMK AO2 LTG DSNT N T00951024
K49A 141615Z AUTO 00000KT 10SM CLR 09/M02 A2993 RMK AO2 LTG DSNT N T00931022
K49A 141555Z AUTO 00000KT 10SM CLR 09/M02 A2993 RMK AO2 LTG DSNT N T00851023
K49A 141535Z AUTO 00000KT 10SM CLR 07/M02 A2993 RMK AO2 LTG DSNT N T00731023
K49A 141515Z AUTO 00000KT 10SM CLR 06/M02 A2993 RMK AO2 LTG DSNT N T00641025
K49A 141455Z AUTO 00000KT 10SM CLR 06/M02 A2992 RMK AO2 LTG DSNT N T00561025
K49A 141435Z AUTO 00000KT 10SM CLR 05/M02 A2992 RMK AO2 LTG DSNT N T00461021
K49A 141415Z AUTO 00000KT 10SM CLR 03/M03 A2993 RMK AO2 LTG DSNT N T00261030
K49A 141355Z AUTO 00000KT 10SM CLR 02/M03 A2992 RMK AO2 LTG DSNT N T00171029
K49A 141335Z AUTO 00000KT 10SM CLR 00/M03 A2992 RMK AO2 LTG DSNT N T00001035
K49A 141315Z AUTO 00000KT 10SM CLR M02/M05 A2991 RMK AO2 LTG DSNT N T10201048
K49A 141255Z AUTO 21003KT 10SM CLR M03/M05 A2991 RMK AO2 LTG DSNT N T10271052
K49A 141235Z AUTO 20003KT 10SM CLR M03/M05 A2990 RMK AO2 LTG DSNT N T10321054
K49A 141215Z AUTO 00000KT 10SM CLR M03/M05 A2989 RMK AO2 LTG DSNT N T10301051
K49A 141155Z AUTO 00000KT 10SM CLR M03/M05 A2987 RMK AO2 LTG DSNT N 7//// T10301055 11003 21030
K49A 141135Z AUTO 00000KT 10SM CLR M03/M05 A2987 RMK AO2 LTG DSNT N T10271054
K49A 141115Z AUTO 00000KT 10SM CLR M03/M05 A2987 RMK AO2 LTG DSNT N T10261052
K49A 141055Z AUTO 00000KT 10SM CLR M02/M05 A2986 RMK AO2 LTG DSNT N T10251049
K49A 141035Z AUTO 00000KT 10SM CLR M03/M05 A2986 RMK AO2 LTG DSNT N T10291051
K49A 141015Z AUTO 00000KT 10SM CLR M03/M05 A2985 RMK AO2 LTG DSNT N T10271055
K49A 140955Z AUTO 00000KT 10SM CLR M03/M05 A2985 RMK AO2 LTG DSNT N T10261053